TimeMST,TemperatureF,Dew PointF,Humidity,Sea Level PressureIn,VisibilityMPH,Wind Direction,Wind SpeedMPH,Gust SpeedMPH,PrecipitationIn,Events,Conditions,WindDirDegrees,DateUTC
12:03 AM,75.2,73.4,94,29.84,10.0,WNW,15.0,-,N/A,Rain,Light Rain,290,2013-07-20 07:03:00
12:13 AM,77.0,75.2,94,29.84,10.0,NW,15.0,-,N/A,Rain,Light Rain,310,2013-07-20 07:13:00
12:57 AM,78.8,75.2,89,29.83,10.0,North,8.1,-,N/A,Rain,Light Rain,350,2013-07-20 07:57:00
12:58 AM,78.8,75.2,89,29.79,10.0,North,8.1,-,0.02,Rain,Light Rain,350,2013-07-20 07:58:00
1:18 AM,78.8,75.2,89,29.83,10.0,NW,3.5,-,N/A,Rain,Light Rain,320,2013-07-20 08:18:00
1:28 AM,78.8,77.0,94,29.84,10.0,NNE,5.8,-,N/A,Rain,Light Rain,20,2013-07-20 08:28:00
1:38 AM,78.8,77.0,94,29.83,10.0,NNE,8.1,-,N/A,Rain,Light Rain,20,2013-07-20 08:38:00
1:58 AM,77.7,76.3,95,29.80,10.0,North,8.1,-,0.03,Rain,Light Rain,350,2013-07-20 08:58:00
2:58 AM,77.2,75.7,95,29.78,10.0,West,2.3,-,0.00,,Light Drizzle,270,2013-07-20 09:58:00
3:58 AM,77.9,75.2,91,29.78,10.0,ESE,3.5,-,0.00,,Mostly Cloudy,110,2013-07-20 10:58:00
4:58 AM,77.7,74.8,91,29.80,10.0,WNW,3.5,-,N/A,,Mostly Cloudy,300,2013-07-20 11:58:00
5:58 AM,78.6,75.4,90,29.81,10.0,West,4.6,-,N/A,,Overcast,280,2013-07-20 12:58:00
6:58 AM,80.2,73.9,81,29.83,10.0,ESE,3.5,-,0.00,Rain,Light Rain,120,2013-07-20 13:58:00
7:58 AM,80.2,76.5,88,29.84,10.0,SW,8.1,-,0.00,,Clear,220,2013-07-20 14:58:00
8:58 AM,82.2,74.5,77,29.84,10.0,Variable,3.5,-,N/A,,Clear,0,2013-07-20 15:58:00
9:58 AM,85.8,73.0,65,29.83,10.0,SW,6.9,-,N/A,,Clear,220,2013-07-20 16:58:00
10:58 AM,87.8,71.1,57,29.82,10.0,West,3.5,-,N/A,,Clear,280,2013-07-20 17:58:00
11:58 AM,90.0,72.5,56,29.80,10.0,Variable,4.6,-,N/A,,Clear,0,2013-07-20 18:58:00
12:58 PM,91.9,71.8,52,29.76,10.0,NW,3.5,-,N/A,,Mostly Cloudy,320,2013-07-20 19:58:00
1:58 PM,93.7,72.0,49,29.72,10.0,SW,4.6,-,N/A,,Clear,230,2013-07-20 20:58:00
2:58 PM,97.0,68.5,39,29.69,10.0,South,4.6,-,N/A,,Clear,190,2013-07-20 21:58:00
3:58 PM,99.0,66.9,35,29.66,10.0,SW,6.9,18.4,N/A,,Clear,230,2013-07-20 22:58:00
4:58 PM,100.2,66.6,33,29.65,10.0,WSW,11.5,-,N/A,,Clear,250,2013-07-20 23:58:00
5:29 PM,100.4,66.2,33,29.70,10.0,West,13.8,-,N/A,,Clear,280,2013-07-21 00:29:00
5:58 PM,96.1,66.9,38,29.66,10.0,WNW,16.1,-,N/A,,Partly Cloudy,300,2013-07-21 00:58:00
6:58 PM,94.1,67.5,42,29.66,10.0,WNW,10.4,-,N/A,,Clear,290,2013-07-21 01:58:00
7:58 PM,92.8,68.7,45,29.70,10.0,NW,4.6,-,N/A,,Clear,320,2013-07-21 02:58:00
8:58 PM,91.2,69.3,48,29.73,10.0,ESE,11.5,-,N/A,,Scattered Clouds,110,2013-07-21 03:58:00
9:58 PM,83.1,69.6,64,29.77,10.0,SSE,19.6,24.2,N/A,,Mostly Cloudy,150,2013-07-21 04:58:00
10:58 PM,81.5,72.3,74,29.77,10.0,ENE,8.1,-,N/A,,Partly Cloudy,70,2013-07-21 05:58:00
11:58 PM,82.4,71.6,70,29.78,10.0,ENE,8.1,-,N/A,,Clear,70,2013-07-21 06:58:00